Wind Star — C6CA9 — position and weather

sailwx.info

Track history (hours):
 
Tides and Currents Weather Stations Pressure Air Temp Water Temp Dewpoint Dewpoint Depression Visibility Wind Speed Wind Dir Waves Ship Positions

Wind Star

Operator: Holland America Line

Last reported at 2014-Aug-22 20:26 UTC. Time now 2014-Aug-22 21:44 UTC.
Position N 37°30' E 024°20'.

Length 135 m; draft 4.1 m.

Type: Ship. MMSI: 309163000.

Date/timePositionNaut miles runAvg speedWind from/ knotsBaromVisibWave heightAir tempDewpointWater temp
2014-Aug-22 20:26N 37°30' E 024°20'9 7.8
2014-Aug-22 19:16N 37°30' E 024°31'6 8.2
2014-Aug-22 18:32N 37°30' E 024°39'9 7.5
2014-Aug-22 17:17N 37°31' E 024°50'6 7.4
2014-Aug-22 16:33N 37°31' E 024°57'8 8.0
2014-Aug-22 15:33N 37°29' E 025°07'8 7.9
2014-Aug-22 14:33N 37°27' E 025°17'2 2.0
2014-Aug-22 13:31N 37°27' E 025°19'0 0.0
2014-Aug-22 12:31N 37°27' E 025°19'0 0.0
2014-Aug-22 11:31N 37°27' E 025°19'0 0.0
2014-Aug-22 10:31N 37°27' E 025°19'0 0.0
2014-Aug-22 09:31N 37°27' E 025°19'0 0.0
2014-Aug-22 08:25N 37°27' E 025°19'0 0.1
2014-Aug-22 07:31N 37°27' E 025°19'0 0.0
2014-Aug-22 06:31N 37°27' E 025°19'0 0.0
2014-Aug-22 05:28N 37°27' E 025°19'0 0.0
2014-Aug-22 04:31N 37°27' E 025°19'2 1.7
2014-Aug-22 03:33N 37°26' E 025°17'7 6.7
2014-Aug-22 02:33N 37°19' E 025°18'6 6.3
2014-Aug-22 01:33N 37°13' E 025°19'7 6.7
2014-Aug-22 00:33N 37°06' E 025°19'7 7.4
2014-Aug-21 23:33N 36°59' E 025°18'7 7.0
2014-Aug-21 22:33N 36°52' E 025°14'6 5.9
2014-Aug-21 21:33N 36°47' E 025°11'7 7.0
2014-Aug-21 20:33N 36°40' E 025°14'7 6.7
2014-Aug-21 19:33N 36°34' E 025°17'7 7.2
2014-Aug-21 18:33N 36°28' E 025°21'4 3.8
2014-Aug-21 17:32N 36°25' E 025°25'0 0.3
2014-Aug-21 16:33N 36°25' E 025°25'0 0.0
2014-Aug-21 14:25N 36°25' E 025°25'0 0.1
2014-Aug-21 13:05N 36°25' E 025°25'0 0.1
2014-Aug-21 09:09N 36°25' E 025°25'0 0.4
2014-Aug-21 08:33N 36°25' E 025°25'0 0.1
2014-Aug-21 04:33N 36°25' E 025°25'6 5.9
2014-Aug-21 03:33N 36°31' E 025°22'9 8.6
2014-Aug-21 02:33N 36°33' E 025°33'9 8.6
2014-Aug-21 01:33N 36°35' E 025°43'8 8.3
2014-Aug-21 00:33N 36°37' E 025°53'8 7.8
2014-Aug-20 23:33N 36°40' E 026°02'8 8.1
2014-Aug-20 22:33N 36°42' E 026°12'9 8.7
2014-Aug-20 21:31N 36°45' E 026°23'9 9.4
2014-Aug-20 20:33N 36°47' E 026°34'1010.2
2014-Aug-20 19:33N 36°49' E 026°46'1010.5
2014-Aug-20 18:33N 36°51' E 026°59'1110.5
2014-Aug-20 17:31N 36°55' E 027°12'  
2014-Aug-16 14:33N 40°58' E 028°58'4 0.3
2014-Aug-16 03:26N 41°02' E 028°59'6 6.6
2014-Aug-16 02:31N 40°56' E 028°59'6 6.6
2014-Aug-16 01:33N 40°52' E 028°52'7 6.3
2014-Aug-16 00:29N 40°51' E 028°43'173 6.6
2014-Aug-14 22:25N 38°55' E 025°56'5110.3
2014-Aug-14 17:28N 38°09' E 026°24'2010.4
2014-Aug-14 15:34N 38°01' E 026°47'10 9.6
2014-Aug-14 14:33N 37°57' E 026°58'25 1.8
2014-Aug-14 00:30N 37°32' E 026°52'7 7.8
2014-Aug-13 23:33N 37°25' E 026°51'17 8.0
2014-Aug-13 21:24N 37°09' E 026°60'7 8.1
2014-Aug-13 20:31N 37°03' E 027°04'17 1.0
2014-Aug-13 03:33N 36°58' E 027°25'16 8.1
2014-Aug-13 01:31N 36°42' E 027°20'31 9.3
2014-Aug-12 22:11N 36°26' E 027°53'  
Track history (hours):
 
Tides and Currents Weather Stations Pressure Air Temp Water Temp Dewpoint Dewpoint Depression Visibility Wind Speed Wind Dir Waves Ship Positions

Wind Star

Operator: Holland America Line

Last reported at 2014-Aug-22 20:26 UTC. Time now 2014-Aug-22 21:44 UTC.
Position N 37°30' E 024°20'.

Length 135 m; draft 4.1 m.

Type: Ship. MMSI: 309163000.

Date/timePositionNaut miles runAvg speedWind from/ knotsBaromVisibWave heightAir tempDewpointWater temp
2014-Aug-22 20:26N 37°30' E 024°20'9 7.8
2014-Aug-22 19:16N 37°30' E 024°31'6 8.2
2014-Aug-22 18:32N 37°30' E 024°39'9 7.5
2014-Aug-22 17:17N 37°31' E 024°50'6 7.4
2014-Aug-22 16:33N 37°31' E 024°57'8 8.0
2014-Aug-22 15:33N 37°29' E 025°07'8 7.9
2014-Aug-22 14:33N 37°27' E 025°17'2 2.0
2014-Aug-22 13:31N 37°27' E 025°19'0 0.0
2014-Aug-22 12:31N 37°27' E 025°19'0 0.0
2014-Aug-22 11:31N 37°27' E 025°19'0 0.0
2014-Aug-22 10:31N 37°27' E 025°19'0 0.0
2014-Aug-22 09:31N 37°27' E 025°19'0 0.0
2014-Aug-22 08:25N 37°27' E 025°19'0 0.1
2014-Aug-22 07:31N 37°27' E 025°19'0 0.0
2014-Aug-22 06:31N 37°27' E 025°19'0 0.0
2014-Aug-22 05:28N 37°27' E 025°19'0 0.0
2014-Aug-22 04:31N 37°27' E 025°19'2 1.7
2014-Aug-22 03:33N 37°26' E 025°17'7 6.7
2014-Aug-22 02:33N 37°19' E 025°18'6 6.3
2014-Aug-22 01:33N 37°13' E 025°19'7 6.7
2014-Aug-22 00:33N 37°06' E 025°19'7 7.4
2014-Aug-21 23:33N 36°59' E 025°18'7 7.0
2014-Aug-21 22:33N 36°52' E 025°14'6 5.9
2014-Aug-21 21:33N 36°47' E 025°11'7 7.0
2014-Aug-21 20:33N 36°40' E 025°14'7 6.7
2014-Aug-21 19:33N 36°34' E 025°17'7 7.2
2014-Aug-21 18:33N 36°28' E 025°21'4 3.8
2014-Aug-21 17:32N 36°25' E 025°25'0 0.3
2014-Aug-21 16:33N 36°25' E 025°25'0 0.0
2014-Aug-21 14:25N 36°25' E 025°25'0 0.1
2014-Aug-21 13:05N 36°25' E 025°25'0 0.1
2014-Aug-21 09:09N 36°25' E 025°25'0 0.4
2014-Aug-21 08:33N 36°25' E 025°25'0 0.1
2014-Aug-21 04:33N 36°25' E 025°25'6 5.9
2014-Aug-21 03:33N 36°31' E 025°22'9 8.6
2014-Aug-21 02:33N 36°33' E 025°33'9 8.6
2014-Aug-21 01:33N 36°35' E 025°43'8 8.3
2014-Aug-21 00:33N 36°37' E 025°53'8 7.8
2014-Aug-20 23:33N 36°40' E 026°02'8 8.1
2014-Aug-20 22:33N 36°42' E 026°12'9 8.7
2014-Aug-20 21:31N 36°45' E 026°23'9 9.4
2014-Aug-20 20:33N 36°47' E 026°34'1010.2
2014-Aug-20 19:33N 36°49' E 026°46'1010.5
2014-Aug-20 18:33N 36°51' E 026°59'1110.5
2014-Aug-20 17:31N 36°55' E 027°12'  
2014-Aug-16 14:33N 40°58' E 028°58'4 0.3
2014-Aug-16 03:26N 41°02' E 028°59'6 6.6
2014-Aug-16 02:31N 40°56' E 028°59'6 6.6
2014-Aug-16 01:33N 40°52' E 028°52'7 6.3
2014-Aug-16 00:29N 40°51' E 028°43'173 6.6
2014-Aug-14 22:25N 38°55' E 025°56'5110.3
2014-Aug-14 17:28N 38°09' E 026°24'2010.4
2014-Aug-14 15:34N 38°01' E 026°47'10 9.6
2014-Aug-14 14:33N 37°57' E 026°58'25 1.8
2014-Aug-14 00:30N 37°32' E 026°52'7 7.8
2014-Aug-13 23:33N 37°25' E 026°51'17 8.0
2014-Aug-13 21:24N 37°09' E 026°60'7 8.1
2014-Aug-13 20:31N 37°03' E 027°04'17 1.0
2014-Aug-13 03:33N 36°58' E 027°25'16 8.1
2014-Aug-13 01:31N 36°42' E 027°20'31 9.3
2014-Aug-12 22:11N 36°26' E 027°53'  

Dump ship's entire track history